Time;durP1;ratioP1;P1;durP2;ratioP2;P2;SDS_P1;SDS_P2;PMS_P1;PMS_P2;Temp;Humidity;BMP_temperature;BMP_pressure;BME280_temperature;BME280_humidity;BME280_pressure;Samples;Min_cycle;Max_cycle;Signal;HPM_P1;HPM_P2
2021/04/24 00:00:15;;;;;;;6.68;5.05;;;13.20;40.60;;;;;;1490058;39;20027;-53
2021/04/24 00:01:37;;;;;;;6.18;4.70;;;13.20;40.90;;;;;;1490086;39;20028;-52
2021/04/24 00:02:58;;;;;;;6.43;5.15;;;13.10;40.80;;;;;;1489972;39;20028;-54
2021/04/24 00:04:19;;;;;;;8.90;5.05;;;13.10;40.80;;;;;;1490485;39;20032;-50
2021/04/24 00:05:42;;;;;;;9.18;4.88;;;13.10;40.90;;;;;;1490434;39;20038;-53
2021/04/24 00:07:06;;;;;;;10.02;5.03;;;13.10;41.00;;;;;;1491252;39;20023;-51
2021/04/24 00:08:27;;;;;;;7.28;4.93;;;13.00;40.90;;;;;;1489188;39;20024;-51
2021/04/24 00:09:48;;;;;;;6.95;4.80;;;13.00;41.00;;;;;;1490762;39;20030;-54
2021/04/24 00:11:09;;;;;;;7.13;5.03;;;13.00;41.00;;;;;;1490500;39;20038;-53
2021/04/24 00:12:30;;;;;;;7.95;4.50;;;13.00;41.00;;;;;;1490078;39;20039;-55
2021/04/24 00:13:52;;;;;;;7.35;4.97;;;13.00;41.10;;;;;;1489524;39;20089;-53
2021/04/24 00:15:15;;;;;;;6.85;4.72;;;13.00;41.10;;;;;;1490969;39;20085;-49
2021/04/24 00:16:36;;;;;;;9.88;5.03;;;13.00;41.00;;;;;;1490617;39;20090;-53
2021/04/24 00:17:57;;;;;;;5.93;4.68;;;13.00;41.10;;;;;;1489871;39;20035;-53
2021/04/24 00:19:18;;;;;;;8.55;4.88;;;12.90;41.10;;;;;;1491279;39;20024;-51
2021/04/24 00:20:39;;;;;;;6.25;4.30;;;13.00;41.20;;;;;;1490649;39;20128;-55
2021/04/24 00:22:00;;;;;;;6.30;4.45;;;12.90;41.20;;;;;;1490084;39;20040;-53
2021/04/24 00:23:21;;;;;;;5.60;4.18;;;12.90;41.20;;;;;;1488674;39;20040;-50
2021/04/24 00:24:42;;;;;;;8.25;4.93;;;12.90;41.30;;;;;;1486177;40;20131;-51
2021/04/24 00:26:03;;;;;;;8.27;4.75;;;12.80;41.30;;;;;;1488423;39;20305;-49
2021/04/24 00:27:23;;;;;;;7.18;5.00;;;12.80;41.30;;;;;;1490518;39;20112;-53
2021/04/24 00:28:44;;;;;;;6.90;4.97;;;12.80;41.40;;;;;;1490003;39;20300;-52
2021/04/24 00:30:08;;;;;;;6.47;5.00;;;12.80;41.40;;;;;;1490110;39;20069;-53
2021/04/24 00:31:29;;;;;;;7.75;4.63;;;12.80;41.60;;;;;;1489910;39;20032;-54
2021/04/24 00:32:51;;;;;;;9.50;4.72;;;12.70;41.60;;;;;;1488676;39;20043;-49
2021/04/24 00:34:12;;;;;;;9.68;5.05;;;12.80;41.50;;;;;;1486937;40;20093;-51
2021/04/24 00:35:33;;;;;;;7.60;4.57;;;12.70;41.50;;;;;;1489520;39;20365;-49
2021/04/24 00:36:54;;;;;;;7.15;4.82;;;12.70;41.50;;;;;;1491198;39;20368;-49
2021/04/24 00:38:15;;;;;;;7.72;4.57;;;12.70;41.60;;;;;;1489515;39;20028;-51
2021/04/24 00:39:36;;;;;;;8.05;5.00;;;12.70;41.70;;;;;;1490949;39;20027;-52
2021/04/24 00:40:57;;;;;;;6.72;4.60;;;12.70;41.80;;;;;;1489785;39;20028;-50
2021/04/24 00:42:18;;;;;;;6.70;4.70;;;12.60;41.80;;;;;;1490369;39;20035;-50
2021/04/24 00:43:39;;;;;;;8.43;5.15;;;12.60;41.80;;;;;;1488669;39;20055;-48
2021/04/24 00:45:00;;;;;;;8.95;4.57;;;12.60;41.90;;;;;;1489819;39;20092;-52
2021/04/24 00:46:22;;;;;;;6.03;4.45;;;12.60;41.90;;;;;;1486472;40;20423;-52
2021/04/24 00:47:43;;;;;;;6.13;4.57;;;12.60;41.90;;;;;;1490245;39;20023;-52
2021/04/24 00:49:04;;;;;;;7.05;4.57;;;12.60;41.90;;;;;;1491105;39;20365;-50
2021/04/24 00:50:33;;;;;;;8.05;5.32;;;12.60;42.00;;;;;;1490568;39;20035;-53
2021/04/24 00:51:54;;;;;;;7.65;4.32;;;12.50;42.20;;;;;;1490681;39;20028;-50
2021/04/24 00:53:15;;;;;;;5.82;4.25;;;12.50;42.00;;;;;;1486111;40;20040;-51
2021/04/24 00:54:36;;;;;;;7.47;4.47;;;12.50;42.10;;;;;;1489558;39;20040;-50
2021/04/24 00:55:58;;;;;;;6.65;4.72;;;12.50;42.10;;;;;;1490939;39;20043;-51
2021/04/24 00:57:19;;;;;;;7.82;4.72;;;12.50;42.20;;;;;;1491014;39;20104;-49
2021/04/24 00:58:40;;;;;;;7.22;4.70;;;12.50;42.30;;;;;;1490232;39;20035;-52
2021/04/24 01:00:02;;;;;;;7.97;5.18;;;12.50;42.30;;;;;;1485830;40;20059;-49
2021/04/24 01:01:23;;;;;;;6.38;4.72;;;12.50;42.20;;;;;;1489131;39;20060;-50
2021/04/24 01:02:44;;;;;;;7.40;5.00;;;12.40;42.20;;;;;;1490911;39;20028;-51
2021/04/24 01:04:05;;;;;;;9.98;4.93;;;12.40;42.30;;;;;;1491521;39;20055;-49
2021/04/24 01:05:34;;;;;;;6.35;4.95;;;12.40;42.40;;;;;;1489942;39;20050;-51
2021/04/24 01:06:55;;;;;;;7.25;4.57;;;12.40;42.50;;;;;;1490229;39;20348;-52
2021/04/24 01:08:16;;;;;;;10.07;4.93;;;12.40;42.30;;;;;;1490860;39;20462;-49
2021/04/24 01:09:37;;;;;;;6.72;4.57;;;12.40;42.30;;;;;;1491147;39;20110;-51
2021/04/24 01:10:58;;;;;;;8.75;4.55;;;12.30;42.40;;;;;;1490258;39;20357;-52
2021/04/24 01:12:19;;;;;;;6.20;4.28;;;12.30;42.40;;;;;;1491252;39;20036;-52
2021/04/24 01:13:40;;;;;;;9.38;4.70;;;12.30;42.50;;;;;;1488885;39;20121;-50
2021/04/24 01:15:02;;;;;;;6.97;4.85;;;12.30;42.50;;;;;;1491236;39;20035;-50
2021/04/24 01:16:23;;;;;;;7.60;4.55;;;12.30;42.50;;;;;;1490797;39;20020;-52
2021/04/24 01:17:44;;;;;;;9.90;4.68;;;12.20;42.60;;;;;;1490030;39;20027;-50
2021/04/24 01:19:06;;;;;;;5.88;4.60;;;12.30;42.60;;;;;;1491023;39;20024;-53
2021/04/24 01:20:27;;;;;;;8.77;4.38;;;12.20;42.50;;;;;;1490464;39;20108;-53
2021/04/24 01:21:49;;;;;;;6.05;4.35;;;12.20;42.50;;;;;;1490434;39;20046;-52
2021/04/24 01:23:10;;;;;;;10.05;4.82;;;12.20;42.60;;;;;;1490338;39;20183;-53
2021/04/24 01:24:31;;;;;;;10.32;4.20;;;12.20;42.60;;;;;;1490593;39;20052;-50
2021/04/24 01:25:53;;;;;;;6.82;4.75;;;12.10;42.60;;;;;;1484552;39;20068;-50
2021/04/24 01:27:15;;;;;;;7.22;4.53;;;12.10;42.60;;;;;;1487755;39;20119;-51
2021/04/24 01:28:36;;;;;;;6.63;4.57;;;12.10;42.70;;;;;;1486603;40;20098;-52
2021/04/24 01:29:57;;;;;;;9.65;4.53;;;12.00;42.80;;;;;;1489625;39;20349;-53
2021/04/24 01:31:18;;;;;;;6.43;4.38;;;12.10;42.80;;;;;;1490879;39;21702;-51
2021/04/24 01:32:38;;;;;;;7.13;4.75;;;12.00;42.80;;;;;;1490690;39;20145;-52
2021/04/24 01:33:59;;;;;;;9.45;5.05;;;12.00;42.90;;;;;;1491239;39;20376;-49
2021/04/24 01:35:24;;;;;;;12.20;5.03;;;12.00;42.90;;;;;;1488141;39;20730;-53
2021/04/24 01:36:45;;;;;;;7.07;4.60;;;12.00;43.20;;;;;;1490579;39;20116;-53
2021/04/24 01:38:07;;;;;;;7.65;4.40;;;11.90;43.20;;;;;;1489143;39;20340;-54
2021/04/24 01:39:29;;;;;;;9.68;5.10;;;11.90;43.30;;;;;;1490159;39;20079;-54
2021/04/24 01:40:51;;;;;;;9.98;5.10;;;11.90;43.30;;;;;;1490410;39;20054;-51
2021/04/24 01:42:12;;;;;;;7.75;4.22;;;11.90;43.40;;;;;;1489365;39;20063;-52
2021/04/24 01:43:35;;;;;;;8.73;4.28;;;11.90;43.30;;;;;;1490747;39;20093;-53
2021/04/24 01:44:56;;;;;;;7.68;4.63;;;11.90;43.20;;;;;;1491206;39;20032;-51
2021/04/24 01:46:18;;;;;;;7.68;4.60;;;11.80;43.10;;;;;;1490501;39;20070;-53
2021/04/24 01:47:41;;;;;;;7.75;5.00;;;11.80;43.20;;;;;;1488638;39;20027;-53
2021/04/24 01:49:02;;;;;;;7.35;4.35;;;11.80;43.40;;;;;;1489196;39;20040;-52
2021/04/24 01:50:30;;;;;;;7.90;4.50;;;11.80;43.30;;;;;;1488733;39;20023;-53
2021/04/24 01:51:51;;;;;;;6.07;4.43;;;11.70;43.50;;;;;;1484956;40;20040;-52
2021/04/24 01:53:21;;;;;;;8.57;4.78;;;11.80;43.40;;;;;;1489701;39;20027;-50
2021/04/24 01:54:42;;;;;;;8.33;4.37;;;11.70;43.60;;;;;;1490779;39;20034;-52
2021/04/24 01:56:03;;;;;;;7.10;4.60;;;11.80;43.40;;;;;;1490902;39;20269;-51
2021/04/24 01:57:24;;;;;;;5.80;4.20;;;11.70;43.50;;;;;;1489821;39;20036;-53
2021/04/24 01:58:44;;;;;;;10.15;4.80;;;11.70;43.60;;;;;;1489132;39;20352;-49
2021/04/24 02:00:08;;;;;;;7.35;5.00;;;11.70;43.60;;;;;;1486737;40;20043;-53
2021/04/24 02:01:29;;;;;;;6.63;4.55;;;11.70;43.70;;;;;;1489245;39;20027;-52
2021/04/24 02:02:52;;;;;;;8.02;4.25;;;11.70;43.70;;;;;;1490166;39;20384;-52
2021/04/24 02:04:14;;;;;;;7.15;4.35;;;11.60;43.90;;;;;;1491081;39;20112;-52
2021/04/24 02:05:35;;;;;;;9.55;4.95;;;11.60;43.90;;;;;;1491242;39;20024;-51
2021/04/24 02:06:56;;;;;;;6.85;4.78;;;11.60;44.00;;;;;;1484798;39;20035;-52
2021/04/24 02:08:21;;;;;;;6.70;4.32;;;11.60;44.00;;;;;;1488562;39;20024;-52
2021/04/24 02:09:42;;;;;;;8.50;4.85;;;11.60;44.10;;;;;;1490828;39;20032;-54
2021/04/24 02:11:05;;;;;;;9.43;4.93;;;11.60;44.20;;;;;;1490075;39;20031;-52
2021/04/24 02:12:26;;;;;;;8.32;4.55;;;11.60;44.30;;;;;;1485763;40;20046;-51
2021/04/24 02:13:47;;;;;;;7.13;4.88;;;11.50;44.10;;;;;;1486186;40;20484;-53
2021/04/24 02:15:08;;;;;;;6.43;4.50;;;11.50;44.00;;;;;;1489305;39;20133;-50
2021/04/24 02:16:29;;;;;;;6.88;4.47;;;11.50;44.00;;;;;;1490032;39;20411;-52
2021/04/24 02:17:50;;;;;;;8.30;4.22;;;11.60;44.10;;;;;;1488449;39;20032;-52
2021/04/24 02:19:11;;;;;;;8.93;4.88;;;11.50;44.00;;;;;;1487159;39;20392;-50
2021/04/24 02:20:36;;;;;;;8.30;4.53;;;11.50;44.10;;;;;;1484170;39;20024;-50
2021/04/24 02:21:57;;;;;;;6.85;4.03;;;11.50;44.30;;;;;;1488065;39;20038;-49
2021/04/24 02:23:19;;;;;;;6.65;4.00;;;11.50;44.40;;;;;;1488470;39;20080;-52
2021/04/24 02:24:45;;;;;;;7.70;4.40;;;11.50;44.50;;;;;;1488898;39;20459;-50
2021/04/24 02:26:09;;;;;;;6.63;4.75;;;11.50;44.60;;;;;;1489182;39;20103;-51
2021/04/24 02:27:31;;;;;;;8.27;4.63;;;11.40;44.60;;;;;;1490502;39;20063;-51
2021/04/24 02:28:51;;;;;;;7.63;5.13;;;11.40;44.50;;;;;;1490709;39;20046;-52
2021/04/24 02:30:16;;;;;;;6.65;4.13;;;11.40;44.40;;;;;;1490512;39;20364;-52
2021/04/24 02:31:37;;;;;;;7.63;4.65;;;11.40;44.60;;;;;;1490166;39;20521;-52
2021/04/24 02:32:58;;;;;;;8.05;4.80;;;11.40;44.60;;;;;;1484590;40;20129;-51
2021/04/24 02:34:19;;;;;;;9.30;4.20;;;11.40;44.70;;;;;;1486395;40;20046;-51
2021/04/24 02:35:50;;;;;;;6.63;4.45;;;11.40;44.80;;;;;;1482487;40;20028;-51
2021/04/24 02:37:12;;;;;;;5.47;4.22;;;11.40;44.70;;;;;;1486144;40;20046;-52
2021/04/24 02:38:34;;;;;;;9.40;4.65;;;11.40;44.50;;;;;;1488129;39;20016;-49
2021/04/24 02:39:55;;;;;;;7.22;4.78;;;11.40;44.60;;;;;;1487019;40;20129;-52
2021/04/24 02:41:16;;;;;;;7.80;4.25;;;11.40;44.60;;;;;;1485167;40;20033;-51
2021/04/24 02:42:37;;;;;;;7.88;4.15;;;11.40;44.60;;;;;;1488048;39;20322;-53
2021/04/24 02:43:58;;;;;;;7.80;4.40;;;11.40;44.60;;;;;;1487518;40;20040;-51
2021/04/24 02:45:19;;;;;;;5.93;4.38;;;11.40;44.60;;;;;;1485643;40;20391;-53
2021/04/24 02:46:40;;;;;;;7.60;4.47;;;11.40;44.60;;;;;;1486986;40;20063;-52
2021/04/24 02:48:01;;;;;;;6.88;4.65;;;11.30;44.40;;;;;;1483670;40;20458;-51
2021/04/24 02:49:22;;;;;;;9.70;4.97;;;11.40;44.60;;;;;;1481856;40;20032;-52
2021/04/24 02:50:44;;;;;;;7.90;4.20;;;11.40;44.60;;;;;;1486052;40;20036;-51
2021/04/24 02:52:07;;;;;;;7.43;4.43;;;11.40;44.60;;;;;;1485942;40;20020;-50
2021/04/24 02:53:28;;;;;;;8.00;4.30;;;11.40;44.70;;;;;;1484060;40;20313;-51
2021/04/24 02:54:49;;;;;;;6.05;4.20;;;11.40;44.60;;;;;;1486136;40;20036;-50
2021/04/24 02:56:09;;;;;;;7.13;4.65;;;11.30;45.10;;;;;;1486628;40;20040;-53
2021/04/24 02:57:30;;;;;;;8.73;4.30;;;11.30;44.50;;;;;;1488098;40;20069;-54
2021/04/24 02:58:51;;;;;;;8.13;5.13;;;11.40;44.60;;;;;;1487751;40;20040;-50
2021/04/24 03:00:15;;;;;;;8.98;5.00;;;11.30;44.60;;;;;;1487582;40;20103;-53
2021/04/24 03:01:36;;;;;;;5.80;4.40;;;11.30;44.80;;;;;;1484565;40;20117;-49
2021/04/24 03:03:05;;;;;;;7.00;4.35;;;11.30;44.70;;;;;;1486010;40;20036;-52
2021/04/24 03:04:27;;;;;;;8.23;4.45;;;11.30;44.70;;;;;;1486909;40;20037;-50
2021/04/24 03:05:48;;;;;;;5.28;3.97;;;11.30;44.70;;;;;;1486178;40;20028;-50
2021/04/24 03:07:08;;;;;;;7.55;4.28;;;11.30;44.70;;;;;;1484912;40;20354;-52
2021/04/24 03:08:29;;;;;;;7.50;4.15;;;11.30;44.60;;;;;;1487817;40;20038;-53
2021/04/24 03:09:50;;;;;;;8.95;4.30;;;11.30;44.50;;;;;;1486367;40;20044;-50
2021/04/24 03:11:11;;;;;;;6.50;3.97;;;11.30;44.50;;;;;;1484879;40;20041;-51
2021/04/24 03:12:33;;;;;;;7.45;4.68;;;11.30;44.60;;;;;;1487086;40;20024;-48
2021/04/24 03:13:54;;;;;;;7.47;4.57;;;11.20;44.60;;;;;;1486834;40;20028;-49
2021/04/24 03:15:15;;;;;;;6.43;4.53;;;11.20;44.50;;;;;;1485443;40;20021;-52
2021/04/24 03:16:37;;;;;;;8.73;4.55;;;11.20;44.60;;;;;;1486108;40;20028;-51
2021/04/24 03:17:58;;;;;;;6.53;4.28;;;11.20;44.60;;;;;;1488087;39;20416;-51
2021/04/24 03:19:19;;;;;;;5.90;4.05;;;11.20;44.50;;;;;;1484461;40;20040;-51
2021/04/24 03:20:40;;;;;;;7.75;4.70;;;11.20;44.50;;;;;;1482791;40;20039;-52
2021/04/24 03:22:01;;;;;;;7.80;4.10;;;11.20;44.50;;;;;;1485246;40;20042;-49
2021/04/24 03:23:22;;;;;;;7.57;4.18;;;11.20;44.50;;;;;;1487722;39;20434;-50
2021/04/24 03:24:43;;;;;;;10.90;4.47;;;11.20;44.50;;;;;;1479493;40;20025;-53
2021/04/24 03:26:04;;;;;;;7.90;4.88;;;11.20;44.50;;;;;;1482797;40;20293;-50
2021/04/24 03:27:25;;;;;;;6.43;4.45;;;11.20;44.50;;;;;;1487498;40;20036;-52
2021/04/24 03:28:46;;;;;;;8.52;4.05;;;11.20;44.50;;;;;;1487251;40;20125;-53
2021/04/24 03:30:10;;;;;;;6.47;4.45;;;11.20;44.60;;;;;;1488359;39;20032;-50
2021/04/24 03:31:31;;;;;;;7.03;4.30;;;11.10;44.60;;;;;;1484710;39;20024;-51
2021/04/24 03:32:52;;;;;;;6.20;4.18;;;11.10;44.50;;;;;;1486688;40;20365;-51
2021/04/24 03:34:13;;;;;;;8.95;4.57;;;11.10;44.40;;;;;;1487153;40;20032;-49
2021/04/24 03:35:34;;;;;;;6.93;4.05;;;11.10;44.60;;;;;;1487416;40;20032;-50
2021/04/24 03:36:55;;;;;;;7.13;4.00;;;11.10;44.70;;;;;;1485968;40;20036;-53
2021/04/24 03:38:15;;;;;;;7.78;4.60;;;11.10;44.70;;;;;;1487829;40;20033;-52
2021/04/24 03:39:36;;;;;;;5.78;3.80;;;11.00;44.70;;;;;;1487400;39;20040;-52
2021/04/24 03:40:58;;;;;;;8.82;4.93;;;11.00;44.90;;;;;;1486900;40;20055;-53
2021/04/24 03:42:18;;;;;;;7.28;4.40;;;11.00;44.90;;;;;;1487423;40;20040;-51
2021/04/24 03:43:40;;;;;;;6.13;4.30;;;11.00;45.10;;;;;;1487279;39;20048;-51
2021/04/24 03:45:01;;;;;;;6.78;4.10;;;11.00;44.90;;;;;;1484635;40;20048;-52
2021/04/24 03:46:22;;;;;;;6.65;4.35;;;11.00;44.80;;;;;;1482314;40;20033;-49
2021/04/24 03:48:02;;;;;;;8.27;4.45;;;11.00;44.80;;;;;;1486410;40;20113;-51
2021/04/24 03:49:23;;;;;;;5.63;3.88;;;11.00;44.70;;;;;;1486864;40;20032;-51
2021/04/24 03:50:44;;;;;;;5.47;4.40;;;10.90;44.50;;;;;;1482493;40;20374;-53
2021/04/24 03:52:06;;;;;;;8.55;4.53;;;10.90;44.50;;;;;;1484474;40;20079;-52
2021/04/24 03:53:27;;;;;;;5.72;4.38;;;10.90;44.50;;;;;;1486713;40;20051;-53
2021/04/24 03:54:48;;;;;;;7.30;4.20;;;10.90;44.50;;;;;;1485719;40;20068;-52
2021/04/24 03:56:09;;;;;;;5.22;3.88;;;10.80;44.50;;;;;;1483694;40;20177;-52
2021/04/24 03:57:30;;;;;;;7.32;4.10;;;10.80;44.50;;;;;;1486515;40;20027;-50
2021/04/24 03:58:50;;;;;;;7.28;4.78;;;10.80;44.60;;;;;;1486942;40;20038;-51
2021/04/24 04:00:13;;;;;;;8.02;4.97;;;10.70;44.70;;;;;;1487322;40;20038;-50
2021/04/24 04:01:35;;;;;;;6.22;4.47;;;10.70;44.80;;;;;;1485813;40;20032;-48
2021/04/24 04:02:59;;;;;;;9.75;4.38;;;10.70;44.70;;;;;;1486180;40;20036;-52
2021/04/24 04:04:20;;;;;;;5.60;4.47;;;10.70;44.80;;;;;;1485340;40;20028;-50
2021/04/24 04:05:44;;;;;;;6.68;4.10;;;10.70;44.80;;;;;;1487222;40;20052;-52
2021/04/24 04:07:04;;;;;;;8.90;4.80;;;10.70;44.90;;;;;;1487517;40;20128;-52
2021/04/24 04:08:25;;;;;;;7.68;4.10;;;10.70;44.80;;;;;;1486808;40;20036;-50
2021/04/24 04:09:46;;;;;;;10.43;4.20;;;10.60;44.90;;;;;;1486405;40;20055;-49
2021/04/24 04:11:07;;;;;;;7.20;4.10;;;10.60;44.90;;;;;;1486437;40;20025;-48
2021/04/24 04:12:28;;;;;;;5.70;3.70;;;10.60;44.90;;;;;;1487419;40;20246;-50
2021/04/24 04:13:49;;;;;;;7.38;4.00;;;10.60;45.00;;;;;;1487580;40;20312;-52
2021/04/24 04:15:11;;;;;;;7.90;4.40;;;10.60;45.00;;;;;;1487025;40;20117;-53
2021/04/24 04:16:32;;;;;;;5.75;3.72;;;10.60;45.00;;;;;;1485834;40;20032;-51
2021/04/24 04:17:58;;;;;;;6.75;4.55;;;10.60;45.00;;;;;;1486895;40;20117;-49
2021/04/24 04:19:19;;;;;;;6.57;3.90;;;10.60;45.20;;;;;;1486521;40;20035;-53
2021/04/24 04:20:49;;;;;;;5.10;3.97;;;10.60;45.10;;;;;;1484936;40;20048;-52
2021/04/24 04:22:10;;;;;;;5.35;3.88;;;10.60;45.20;;;;;;1487500;40;20032;-52
2021/04/24 04:23:31;;;;;;;6.57;3.90;;;10.50;45.00;;;;;;1485938;40;20048;-51
2021/04/24 04:24:52;;;;;;;8.25;3.83;;;10.50;45.50;;;;;;1486472;40;20028;-52
2021/04/24 04:26:13;;;;;;;6.45;4.07;;;10.50;45.00;;;;;;1485376;40;20028;-52
2021/04/24 04:27:34;;;;;;;8.43;4.53;;;10.50;45.10;;;;;;1487144;39;20030;-50
2021/04/24 04:28:54;;;;;;;8.88;4.22;;;10.50;45.10;;;;;;1486993;40;20028;-51
2021/04/24 04:30:17;;;;;;;4.68;3.75;;;10.50;45.10;;;;;;1482147;40;20025;-52
2021/04/24 04:31:37;;;;;;;6.78;4.13;;;10.50;45.10;;;;;;1484448;40;20092;-50
2021/04/24 04:33:00;;;;;;;7.45;3.80;;;10.50;45.00;;;;;;1485082;40;20037;-49
2021/04/24 04:34:20;;;;;;;5.40;3.63;;;10.50;45.00;;;;;;1487353;40;20031;-50
2021/04/24 04:35:42;;;;;;;7.97;4.07;;;10.50;44.90;;;;;;1486831;40;20101;-50
2021/04/24 04:37:03;;;;;;;5.95;4.05;;;10.50;45.10;;;;;;1487304;40;20032;-51
2021/04/24 04:38:24;;;;;;;6.80;4.35;;;10.50;45.10;;;;;;1486402;40;20028;-52
2021/04/24 04:39:44;;;;;;;6.53;4.50;;;10.50;45.10;;;;;;1484806;39;20054;-50
2021/04/24 04:41:06;;;;;;;5.93;3.95;;;10.50;45.10;;;;;;1487188;39;20206;-49
2021/04/24 04:42:27;;;;;;;5.60;4.03;;;10.50;45.00;;;;;;1487286;40;20052;-50
2021/04/24 04:43:48;;;;;;;7.25;4.25;;;10.50;44.90;;;;;;1486666;40;20366;-51
2021/04/24 04:45:10;;;;;;;8.30;4.43;;;10.50;45.00;;;;;;1487732;40;20070;-51
2021/04/24 04:46:31;;;;;;;7.78;4.78;;;10.40;45.00;;;;;;1486237;40;20028;-51
2021/04/24 04:47:52;;;;;;;6.55;4.45;;;10.40;45.10;;;;;;1486861;40;20117;-50
2021/04/24 04:49:13;;;;;;;5.88;3.70;;;10.40;45.10;;;;;;1487253;40;20020;-50
2021/04/24 04:50:37;;;;;;;7.82;4.28;;;10.40;45.20;;;;;;1485525;40;20056;-48
2021/04/24 04:51:58;;;;;;;6.60;4.00;;;10.40;45.30;;;;;;1486696;40;20043;-50
2021/04/24 04:53:19;;;;;;;6.85;4.13;;;10.40;45.10;;;;;;1487233;40;20027;-52
2021/04/24 04:54:40;;;;;;;7.97;3.92;;;10.40;45.20;;;;;;1484816;40;20044;-50
2021/04/24 04:56:01;;;;;;;7.70;4.50;;;10.40;45.20;;;;;;1481128;40;20072;-49
2021/04/24 04:57:22;;;;;;;6.38;3.90;;;10.40;45.20;;;;;;1480708;40;20087;-50
2021/04/24 04:58:43;;;;;;;6.70;4.65;;;10.50;45.30;;;;;;1486975;40;20040;-49
2021/04/24 05:00:06;;;;;;;6.43;4.30;;;10.40;45.30;;;;;;1486753;40;20082;-52
2021/04/24 05:01:27;;;;;;;6.28;3.78;;;10.40;45.30;;;;;;1487977;40;20032;-51
2021/04/24 05:02:48;;;;;;;7.47;4.63;;;10.50;45.20;;;;;;1486975;40;20048;-51
2021/04/24 05:04:09;;;;;;;6.25;4.35;;;10.50;45.30;;;;;;1487406;40;20052;-51
2021/04/24 05:05:30;;;;;;;6.43;4.60;;;10.50;45.20;;;;;;1485954;40;20108;-51
2021/04/24 05:06:51;;;;;;;7.53;4.80;;;10.50;45.20;;;;;;1485764;40;20060;-49
2021/04/24 05:08:12;;;;;;;9.88;4.50;;;10.50;45.20;;;;;;1484917;40;20024;-53
2021/04/24 05:09:33;;;;;;;7.78;4.43;;;10.50;45.30;;;;;;1486048;40;20051;-51
2021/04/24 05:10:54;;;;;;;8.25;4.40;;;10.50;45.40;;;;;;1485108;40;20036;-52
2021/04/24 05:12:15;;;;;;;6.45;5.10;;;10.50;45.40;;;;;;1488225;39;20028;-51
2021/04/24 05:13:36;;;;;;;6.05;4.35;;;10.50;45.40;;;;;;1487199;40;20032;-51
2021/04/24 05:14:57;;;;;;;7.85;4.88;;;10.50;45.50;;;;;;1486575;40;20043;-50
2021/04/24 05:16:17;;;;;;;5.97;4.28;;;10.50;45.50;;;;;;1486479;40;20503;-49
2021/04/24 05:17:38;;;;;;;7.25;4.45;;;10.50;45.50;;;;;;1485479;40;20035;-51
2021/04/24 05:18:59;;;;;;;6.07;3.90;;;10.50;45.60;;;;;;1485052;40;20093;-53
2021/04/24 05:20:20;;;;;;;6.82;4.32;;;10.50;45.60;;;;;;1486899;39;20322;-49
2021/04/24 05:21:41;;;;;;;8.05;4.70;;;10.50;45.60;;;;;;1484669;40;20092;-51
2021/04/24 05:23:03;;;;;;;6.65;4.10;;;10.50;45.60;;;;;;1482874;40;20048;-50
2021/04/24 05:24:24;;;;;;;9.32;4.60;;;10.50;45.60;;;;;;1486046;40;20048;-49
2021/04/24 05:25:45;;;;;;;7.78;4.95;;;10.60;45.70;;;;;;1483018;40;20373;-50
2021/04/24 05:27:06;;;;;;;6.03;3.90;;;10.60;46.20;;;;;;1485669;40;20072;-50
2021/04/24 05:28:27;;;;;;;7.30;5.00;;;10.60;45.80;;;;;;1485428;40;20271;-51
2021/04/24 05:29:48;;;;;;;6.95;4.47;;;10.60;45.90;;;;;;1485641;40;20053;-49
2021/04/24 05:31:08;;;;;;;8.02;4.60;;;10.60;45.80;;;;;;1485898;40;20080;-52
2021/04/24 05:32:29;;;;;;;6.63;4.63;;;10.60;45.80;;;;;;1490506;39;20345;-52
2021/04/24 05:33:50;;;;;;;5.32;4.30;;;10.60;45.80;;;;;;1489373;39;20032;-49
2021/04/24 05:35:14;;;;;;;6.32;4.63;;;10.60;45.90;;;;;;1489902;39;20056;-47
2021/04/24 05:36:36;;;;;;;8.10;4.43;;;10.70;46.00;;;;;;1490543;39;20036;-52
2021/04/24 05:37:57;;;;;;;6.55;4.30;;;10.70;46.00;;;;;;1490670;39;20044;-56
2021/04/24 05:39:18;;;;;;;7.57;4.50;;;10.70;46.00;;;;;;1491633;39;20024;-51
2021/04/24 05:40:38;;;;;;;9.20;4.60;;;10.70;46.00;;;;;;1489835;39;20031;-50
2021/04/24 05:41:59;;;;;;;7.70;4.47;;;10.70;46.00;;;;;;1491258;39;20028;-54
2021/04/24 05:43:20;;;;;;;8.52;4.57;;;10.80;46.10;;;;;;1489453;39;20277;-51
2021/04/24 05:44:41;;;;;;;6.25;4.78;;;10.70;46.10;;;;;;1490956;39;20024;-52
2021/04/24 05:46:02;;;;;;;6.63;4.10;;;10.80;46.10;;;;;;1491054;39;20032;-55
2021/04/24 05:47:23;;;;;;;8.45;4.18;;;10.80;46.00;;;;;;1486127;39;20035;-53
2021/04/24 05:48:45;;;;;;;7.97;4.57;;;10.80;46.00;;;;;;1489269;39;20295;-52
2021/04/24 05:50:08;;;;;;;6.85;4.50;;;10.80;46.10;;;;;;1489634;39;20041;-53
2021/04/24 05:51:30;;;;;;;7.20;4.20;;;10.90;46.10;;;;;;1490563;39;20051;-51
2021/04/24 05:52:51;;;;;;;6.60;4.68;;;10.90;46.10;;;;;;1489228;39;20471;-51
2021/04/24 05:54:12;;;;;;;9.23;4.68;;;11.00;46.10;;;;;;1491279;39;20048;-53
2021/04/24 05:55:33;;;;;;;6.63;4.43;;;10.90;46.10;;;;;;1490250;39;20040;-51
2021/04/24 05:56:54;;;;;;;6.95;4.40;;;10.90;46.10;;;;;;1488686;39;20039;-51
2021/04/24 05:58:15;;;;;;;6.80;4.10;;;11.00;46.20;;;;;;1489234;39;20024;-50
2021/04/24 05:59:36;;;;;;;5.93;4.60;;;11.00;46.20;;;;;;1490882;39;20043;-52
2021/04/24 06:00:57;;;;;;;7.00;4.50;;;11.00;46.20;;;;;;1489916;39;20068;-51
2021/04/24 06:02:18;;;;;;;6.57;4.18;;;11.10;46.20;;;;;;1488919;39;20293;-51
2021/04/24 06:03:39;;;;;;;9.32;4.55;;;11.10;46.10;;;;;;1488082;39;20032;-54
2021/04/24 06:05:00;;;;;;;8.98;4.63;;;11.10;46.10;;;;;;1488770;39;20136;-52
2021/04/24 06:06:21;;;;;;;6.53;4.18;;;11.10;46.00;;;;;;1488024;39;20044;-53
2021/04/24 06:07:42;;;;;;;6.65;4.63;;;11.10;46.10;;;;;;1489261;39;20039;-53
2021/04/24 06:09:04;;;;;;;7.30;4.22;;;11.20;46.20;;;;;;1490357;39;20376;-50
2021/04/24 06:10:25;;;;;;;6.85;5.03;;;11.20;46.10;;;;;;1489179;39;20031;-52
2021/04/24 06:11:45;;;;;;;5.93;4.32;;;11.30;46.10;;;;;;1490125;39;20261;-52
2021/04/24 06:13:07;;;;;;;7.05;5.05;;;11.30;46.10;;;;;;1488753;39;20039;-54
2021/04/24 06:14:28;;;;;;;9.68;4.65;;;11.30;46.10;;;;;;1490556;39;20047;-51
2021/04/24 06:15:49;;;;;;;6.93;4.25;;;11.40;46.10;;;;;;1491463;39;20106;-53
2021/04/24 06:17:10;;;;;;;7.93;4.75;;;11.40;46.00;;;;;;1490759;39;20023;-54
2021/04/24 06:18:31;;;;;;;11.07;4.72;;;11.40;46.10;;;;;;1490640;39;20032;-52
2021/04/24 06:19:52;;;;;;;8.90;4.75;;;11.40;46.10;;;;;;1490724;39;20040;-54
2021/04/24 06:21:13;;;;;;;7.97;4.38;;;11.50;46.00;;;;;;1490054;39;20039;-52
2021/04/24 06:22:34;;;;;;;6.75;4.57;;;11.50;46.00;;;;;;1490791;39;20028;-54
2021/04/24 06:23:56;;;;;;;7.18;4.80;;;11.50;46.00;;;;;;1490234;39;20035;-53
2021/04/24 06:25:18;;;;;;;9.68;4.88;;;11.50;46.00;;;;;;1489752;39;20044;-52
2021/04/24 06:26:39;;;;;;;7.32;4.07;;;11.60;46.00;;;;;;1490810;39;20030;-52
2021/04/24 06:28:00;;;;;;;8.02;4.53;;;11.60;46.00;;;;;;1486508;40;20033;-54
2021/04/24 06:29:21;;;;;;;7.70;4.43;;;11.60;46.00;;;;;;1488422;39;20367;-50
2021/04/24 06:30:42;;;;;;;6.75;4.10;;;11.70;46.00;;;;;;1484749;40;20059;-51
2021/04/24 06:32:04;;;;;;;7.97;4.25;;;11.70;45.80;;;;;;1488877;39;20046;-50
2021/04/24 06:33:25;;;;;;;6.13;4.28;;;11.70;45.80;;;;;;1485931;40;20028;-53
2021/04/24 06:34:46;;;;;;;8.95;4.10;;;11.70;45.80;;;;;;1489034;39;20038;-50
2021/04/24 06:36:07;;;;;;;9.02;4.10;;;11.70;45.60;;;;;;1490739;39;20040;-50
2021/04/24 06:37:28;;;;;;;6.03;4.15;;;11.80;45.60;;;;;;1489199;39;20116;-52
2021/04/24 06:38:48;;;;;;;7.28;4.22;;;11.80;45.60;;;;;;1487162;39;20040;-51
2021/04/24 06:40:12;;;;;;;7.53;4.30;;;11.80;45.40;;;;;;1489929;39;20260;-53
2021/04/24 06:41:33;;;;;;;8.55;4.13;;;11.90;45.40;;;;;;1489380;39;20023;-52
2021/04/24 06:42:55;;;;;;;6.65;4.07;;;11.90;45.40;;;;;;1490539;39;20570;-55
2021/04/24 06:44:16;;;;;;;6.78;4.13;;;11.90;45.60;;;;;;1491110;39;20059;-53
2021/04/24 06:45:37;;;;;;;7.63;4.32;;;11.90;45.50;;;;;;1489770;39;20109;-53
2021/04/24 06:46:58;;;;;;;7.50;3.90;;;11.90;45.40;;;;;;1489499;39;20035;-52
2021/04/24 06:48:19;;;;;;;7.55;4.43;;;12.00;45.30;;;;;;1490812;39;20049;-52
2021/04/24 06:49:40;;;;;;;7.38;4.38;;;12.00;45.30;;;;;;1490768;39;20448;-51
2021/04/24 06:51:01;;;;;;;9.68;4.15;;;12.00;45.30;;;;;;1490464;39;20032;-50
2021/04/24 06:52:22;;;;;;;9.52;4.00;;;12.00;45.30;;;;;;1490087;39;20135;-50
2021/04/24 06:53:43;;;;;;;7.55;3.85;;;12.00;45.20;;;;;;1490453;39;20032;-51
2021/04/24 06:55:06;;;;;;;7.82;3.95;;;12.00;45.20;;;;;;1490696;39;20032;-52
2021/04/24 06:56:27;;;;;;;7.10;3.40;;;12.10;45.20;;;;;;1488868;39;20478;-53
2021/04/24 06:57:48;;;;;;;6.13;3.85;;;12.10;45.10;;;;;;1490382;39;20027;-53
2021/04/24 06:59:09;;;;;;;6.35;3.80;;;12.10;45.20;;;;;;1490336;39;20039;-55
2021/04/24 07:00:30;;;;;;;5.68;3.58;;;12.20;45.40;;;;;;1490267;39;20389;-53
2021/04/24 07:01:51;;;;;;;6.65;3.55;;;12.20;45.20;;;;;;1489139;39;20042;-53
2021/04/24 07:03:12;;;;;;;5.18;3.92;;;12.20;45.10;;;;;;1488483;39;20036;-53